Aeroporto :
LOGIN :

Iscrizione | Disclaimer

   EN    FR    IT 

 










Sommario :    VFR   VFR Marginale   IFR   IFR Intensivo   IFR Molto Intensivo
Visibilità : 
Base nubi : 
>= 8 km
>= 3000ft
5 / 8 km
1000 / 3000 ft
1500m / 5 km
500 / 1000 ft
800 / 1500m
200 / 500 ft
< 800m
< 200 ft
Simboli :   Temporali  Nebbia  Neve Forte  Precipitazioni Forti  Vento > 20 kt
SIGMETs :   Varie  Temporali  Ghiacco  Turbolenza  Onda orograficha  Ceneri Vulcaniche






- Altitudine del aeroporto : 285 ft
- Codice IATA : GOZ


LBGO - Gorna Oryahovitsa

ULTIMO METAR :
  • 040800Z AUTO 29005KT 270V330 0300 R/////// FZFG VV002 M02/M02 Q1017 NOSIG

METARs OBSOLETI :
  • 040730Z AUTO 27003KT 240V300 0300 0250E R/////// FG VV002 M02/M02 Q1017 NOSIG
  • 040700Z AUTO 00000KT 0300 R/////// FG VV002 M02/M02 Q1017 NOSIG
  • 040630Z AUTO 00000KT 0350 0300E R/////// FZFG VV002 M02/M02 Q1017 NOSIG
  • 040600Z AUTO 00000KT 0300 R/////// FZFG VV002 M02/M02 Q1017 NOSIG
  • 040530Z AUTO 00000KT 0450 0400E R/////// FZFG VV002 M02/M02 Q1017 NOSIG
  • 040500Z AUTO 00000KT 0650 0600W R/////// FZFG VV002 M02/M02 Q1017 NOSIG

TAF TAF LBGO
Valido dal 04 a 06 ore il 05 a 06 ore UTC


040500Z 0406/0506 VRB04KT 0300 FZFG VV001
TEMPO 0406/0409 1500 BR BKN003
BECMG 0409/0411 5000 BR OVC005
TEMPO 0411/0416 8000 BKN010
TEMPO 0421/0506 0600 FZFG OVC002



MetMap, La meteo Aeronautica in un colpo d'occhio ! - Copyright ORBIFLY Dicembre 2007 - Disclaimer

ORBIFLY MET'MAP TEAM :

Programmazione e sviluppo : Alexandra Zaïnal
Concezione : Baudouin d'Aumeries
Aiuto per la programmazione : Marc-Olivier Méhu
Supporto tecnico e logistico : Manuel Goepfert
Aiuto per la traduzione : Arnaldo La Scala

Contatto : metmap@orbifly.com




FONTI E CREDITI :

   NOAA